Pocao, Brazil
Current Conditions -  °F | °C
As of 3:00 PM on Wednesday 26 Nov 2014 (Local Time) from SBKG Reporting Station
Clear Clear  
Wind Chill: 86°   Ceiling: Unl
Heat Index: 86°   Visibility: 6mi
Dew Point: 61°   Wind: 16mph
Humidity: 43%   Direction: 90°E
Pressure: 29.91"   Gusts: NA
Location:  8.18°S, 36.7°W
Report Text: SBKG 261800Z 09014KT CAVOK 30/16 Q1013
Loading
Personal Weather Stations






























Interactive Weather Map New forecast layout! Learn more

10-Day Weather Forecast

Advertisements
Track Severe Weather on mobile